Time;durP1;ratioP1;P1;durP2;ratioP2;P2;SDS_P1;SDS_P2;PMS_P1;PMS_P2;Temp;Humidity;BMP_temperature;BMP_pressure;BME280_temperature;BME280_humidity;BME280_pressure;Samples;Min_cycle;Max_cycle;Signal;HPM_P1;HPM_P2
2023/03/19 00:00:00;;;;;;;3.58;2.42;;;;;;;9.94;100.00;101051.47;4940345;29;20488;-91
2023/03/19 00:02:28;;;;;;;3.53;2.40;;;;;;;10.03;100.00;101064.25;4940925;29;20023;-91
2023/03/19 00:04:53;;;;;;;5.85;2.47;;;;;;;10.01;100.00;101053.91;4954536;28;20669;-90
2023/03/19 00:07:19;;;;;;;3.22;2.30;;;;;;;9.91;100.00;101047.19;4940582;29;20070;-90
2023/03/19 00:09:47;;;;;;;3.40;2.30;;;;;;;10.07;100.00;101065.91;4944231;29;20599;-90
2023/03/19 00:12:13;;;;;;;3.45;2.10;;;;;;;10.04;100.00;101064.19;4937577;28;20047;-90
2023/03/19 00:14:41;;;;;;;4.03;2.00;;;;;;;10.04;100.00;101064.19;4955037;28;20062;-90
2023/03/19 00:17:27;;;;;;;2.53;1.80;;;;;;;9.89;100.00;101046.38;4944516;29;20030;-91
2023/03/19 00:23:52;;;;;;;2.40;1.77;;;;;;;9.83;100.00;101046.44;4930756;29;20098;-90
2023/03/19 00:26:20;;;;;;;4.47;1.80;;;;;;;9.81;100.00;101056.00;4928387;29;20432;-91
2023/03/19 00:28:45;;;;;;;2.47;1.70;;;;;;;9.83;100.00;101061.97;4940088;28;20043;-90
2023/03/19 00:31:14;;;;;;;2.85;1.75;;;;;;;9.71;100.00;101047.53;4939814;29;20027;-91
2023/03/19 00:33:40;;;;;;;3.10;1.90;;;;;;;9.71;100.00;101054.44;4939938;28;20051;-91
2023/03/19 00:36:10;;;;;;;2.10;1.65;;;;;;;9.68;100.00;101055.34;4941632;29;20058;-91
2023/03/19 00:38:36;;;;;;;3.28;1.75;;;;;;;9.72;100.00;101057.00;4940656;29;20082;-91
2023/03/19 00:41:02;;;;;;;3.72;1.90;;;;;;;9.64;100.00;101052.81;4940974;28;20114;-91
2023/03/19 00:43:27;;;;;;;3.33;1.95;;;;;;;9.63;100.00;101061.47;4939189;28;20032;-91
2023/03/19 00:45:53;;;;;;;2.08;1.80;;;;;;;9.67;100.00;101060.56;4940693;29;20031;-91
2023/03/19 00:48:20;;;;;;;3.42;2.00;;;;;;;9.75;100.00;101072.50;4954984;28;20495;-92
2023/03/19 00:50:46;;;;;;;3.38;2.15;;;;;;;9.80;100.00;101093.13;4940602;28;20055;-91
2023/03/19 00:53:12;;;;;;;3.63;2.25;;;;;;;9.65;100.00;101062.31;4941891;29;20513;-91
2023/03/19 00:55:37;;;;;;;3.25;2.17;;;;;;;9.66;100.00;101059.69;4940151;29;20043;-91
2023/03/19 00:58:03;;;;;;;4.55;2.53;;;;;;;9.68;100.00;101052.75;4938968;28;20027;-91
2023/03/19 01:00:28;;;;;;;4.65;2.30;;;;;;;9.73;100.00;101071.66;4938703;28;20027;-91
2023/03/19 01:02:54;;;;;;;3.97;2.28;;;;;;;9.72;100.00;101063.91;4945313;29;20039;-91
2023/03/19 01:05:19;;;;;;;4.90;2.83;;;;;;;9.69;100.00;101059.63;4939489;28;20586;-91
2023/03/19 01:07:45;;;;;;;4.43;2.88;;;;;;;9.80;100.00;101080.16;4940210;28;20057;-91
2023/03/19 01:10:11;;;;;;;5.38;2.60;;;;;;;9.78;100.00;101087.97;4942883;28;20063;-91
2023/03/19 01:12:36;;;;;;;4.57;2.90;;;;;;;9.61;100.00;101051.16;4938960;29;20050;-92
2023/03/19 01:15:06;;;;;;;5.65;2.90;;;;;;;9.66;100.00;101066.59;4939644;29;20062;-91
2023/03/19 01:17:31;;;;;;;4.65;2.92;;;;;;;9.71;100.00;101081.16;4940305;29;20057;-91
2023/03/19 01:19:57;;;;;;;5.47;3.10;;;;;;;9.59;100.00;101058.09;4939883;28;20062;-89
2023/03/19 01:22:22;;;;;;;6.47;2.83;;;;;;;9.61;100.00;101069.28;4938178;28;20051;-91
2023/03/19 01:24:48;;;;;;;4.10;2.83;;;;;;;9.66;100.00;101071.78;4939960;29;20031;-90
2023/03/19 01:27:13;;;;;;;4.07;2.45;;;;;;;9.60;100.00;101061.53;4940243;29;20566;-91
2023/03/19 01:29:39;;;;;;;4.35;2.90;;;;;;;9.53;100.00;101058.19;4938582;28;20391;-91
2023/03/19 01:32:04;;;;;;;4.88;2.78;;;;;;;9.56;100.00;101070.19;4940578;29;20038;-91
2023/03/19 01:34:30;;;;;;;4.63;3.05;;;;;;;9.48;100.00;101060.00;4954989;28;20042;-91
2023/03/19 01:36:56;;;;;;;5.22;3.10;;;;;;;9.46;100.00;101053.97;4938865;28;20055;-91
2023/03/19 01:39:21;;;;;;;4.82;2.97;;;;;;;9.51;100.00;101062.53;4938114;28;20031;-90
2023/03/19 01:41:47;;;;;;;5.05;3.00;;;;;;;9.61;100.00;101069.28;4938304;29;20146;-91
2023/03/19 01:44:23;;;;;;;5.20;3.00;;;;;;;9.63;100.00;101066.63;4938712;29;20035;-91
2023/03/19 01:46:49;;;;;;;5.53;3.30;;;;;;;9.63;100.00;101070.09;4955748;28;20027;-90
2023/03/19 01:49:18;;;;;;;5.47;3.55;;;;;;;9.54;100.00;101052.13;4939322;28;20318;-92
2023/03/19 01:51:46;;;;;;;5.10;3.53;;;;;;;9.50;100.00;101046.13;4951140;28;20035;-91
2023/03/19 01:54:15;;;;;;;4.90;3.50;;;;;;;9.62;100.00;101059.78;4938913;29;20031;-91
2023/03/19 01:56:42;;;;;;;5.43;3.75;;;;;;;9.52;100.00;101051.28;4939964;29;20033;-90
2023/03/19 01:59:15;;;;;;;6.07;3.60;;;;;;;9.67;100.00;101074.34;4937786;29;20038;-92
2023/03/19 02:01:56;;;;;;;5.13;3.65;;;;;;;9.54;100.00;101046.97;4938127;28;20019;-91
2023/03/19 02:04:24;;;;;;;6.40;3.58;;;;;;;9.68;100.00;101072.63;4937126;28;20054;-91
2023/03/19 02:06:50;;;;;;;4.65;3.42;;;;;;;9.61;100.00;101052.88;4954476;28;20030;-90
2023/03/19 02:09:17;;;;;;;5.03;3.42;;;;;;;9.63;100.00;101056.28;4939566;28;20027;-91
2023/03/19 02:11:43;;;;;;;6.22;3.67;;;;;;;9.67;100.00;101063.13;4953405;28;20035;-91
2023/03/19 02:14:09;;;;;;;5.57;3.63;;;;;;;9.60;100.00;101053.75;4954439;28;20027;-91
2023/03/19 02:16:34;;;;;;;6.45;3.88;;;;;;;9.71;100.00;101077.72;4939780;29;20031;-92
2023/03/19 02:19:02;;;;;;;5.60;3.92;;;;;;;9.64;100.00;101061.44;4938868;28;20090;-91
2023/03/19 02:21:28;;;;;;;6.43;3.83;;;;;;;9.73;100.00;101079.41;4939766;28;20031;-92
2023/03/19 02:24:15;;;;;;;7.35;4.05;;;;;;;9.64;100.00;101056.25;4942171;29;20527;-91
2023/03/19 02:26:42;;;;;;;6.88;3.75;;;;;;;9.68;100.00;101055.34;4957080;28;20081;-91
2023/03/19 02:29:07;;;;;;;6.95;4.15;;;;;;;9.74;100.00;101068.19;4955066;28;20035;-91
2023/03/19 02:31:33;;;;;;;7.68;4.57;;;;;;;9.78;100.00;101068.97;4943416;29;20038;-91
2023/03/19 02:34:04;;;;;;;7.32;4.28;;;;;;;9.68;100.00;101050.19;4957095;28;20165;-91
2023/03/19 02:36:43;;;;;;;7.68;4.28;;;;;;;9.67;100.00;101051.06;4957284;28;20373;-91
2023/03/19 02:39:19;;;;;;;8.50;4.63;;;;;;;9.71;100.00;101055.28;4941262;28;20515;-91
2023/03/19 02:41:45;;;;;;;7.05;4.78;;;;;;;9.73;100.00;101058.72;4942024;28;20027;-91
2023/03/19 02:44:11;;;;;;;7.22;4.47;;;;;;;9.74;100.00;101055.25;4957202;28;20027;-91
2023/03/19 02:46:37;;;;;;;8.60;5.47;;;;;;;9.70;100.00;101056.16;4940870;28;20502;-92
2023/03/19 02:49:04;;;;;;;10.20;5.20;;;;;;;9.80;100.00;101077.59;4955963;28;20391;-91
2023/03/19 02:51:30;;;;;;;7.05;5.03;;;;;;;9.74;100.00;101075.09;4942084;29;20031;-91
2023/03/19 02:53:55;;;;;;;8.15;5.10;;;;;;;9.76;100.00;101068.16;4942872;29;20216;-91
2023/03/19 02:56:21;;;;;;;9.18;5.32;;;;;;;9.72;100.00;101069.94;4941814;29;20046;-91
2023/03/19 02:58:46;;;;;;;10.00;5.25;;;;;;;9.85;100.00;101083.53;4942549;28;20118;-91
2023/03/19 03:01:12;;;;;;;7.38;4.85;;;;;;;9.79;100.00;101073.28;4941053;28;20497;-92
2023/03/19 03:03:38;;;;;;;9.43;4.90;;;;;;;9.82;100.00;101079.28;4941902;28;20110;-91
2023/03/19 03:06:03;;;;;;;7.22;4.90;;;;;;;9.79;100.00;101074.13;4956384;28;20182;-90
2023/03/19 03:08:32;;;;;;;9.93;5.40;;;;;;;9.86;100.00;101090.44;4945366;28;20034;-91
2023/03/19 03:10:57;;;;;;;8.65;5.60;;;;;;;9.82;100.00;101071.50;4941194;29;20027;-91
2023/03/19 03:13:23;;;;;;;8.30;5.25;;;;;;;9.87;100.00;101081.78;4956293;28;20476;-92
2023/03/19 03:15:48;;;;;;;8.48;5.45;;;;;;;9.75;100.00;101067.31;4942122;28;20023;-91
2023/03/19 03:18:13;;;;;;;10.55;5.28;;;;;;;9.79;100.00;101078.47;4955693;28;20028;-91
2023/03/19 03:20:39;;;;;;;10.27;5.40;;;;;;;9.86;100.00;101082.66;4957305;28;20947;-90
2023/03/19 03:23:05;;;;;;;9.50;5.95;;;;;;;9.74;100.00;101070.78;4942713;29;20122;-92
2023/03/19 03:25:31;;;;;;;8.98;5.55;;;;;;;9.80;100.00;101073.25;4941236;29;20090;-92
2023/03/19 03:27:56;;;;;;;9.13;5.60;;;;;;;9.79;100.00;101084.50;4955264;28;20061;-91
2023/03/19 03:30:22;;;;;;;9.50;5.72;;;;;;;9.84;100.00;101089.59;4940444;28;20500;-91
2023/03/19 03:32:47;;;;;;;8.45;5.43;;;;;;;9.75;100.00;101069.06;4941299;28;20134;-91
2023/03/19 03:35:17;;;;;;;10.55;6.05;;;;;;;9.85;100.00;101096.47;4955350;28;20033;-92
2023/03/19 03:37:42;;;;;;;8.25;5.70;;;;;;;9.78;100.00;101085.38;4956723;28;20571;-92
2023/03/19 03:40:09;;;;;;;8.82;5.80;;;;;;;9.84;100.00;101090.44;4941875;28;20019;-92
2023/03/19 03:42:37;;;;;;;8.10;5.57;;;;;;;9.82;100.00;101088.78;4942410;29;20046;-91
2023/03/19 03:45:03;;;;;;;11.68;6.53;;;;;;;9.75;100.00;101076.81;4941295;28;20063;-92
2023/03/19 03:47:29;;;;;;;9.75;6.13;;;;;;;9.64;100.00;101064.03;4939728;28;20031;-91
2023/03/19 03:49:55;;;;;;;12.82;6.20;;;;;;;9.55;100.00;101069.38;4940160;29;20514;-91
2023/03/19 03:52:21;;;;;;;11.80;6.60;;;;;;;9.65;100.00;101098.53;4955954;28;20034;-91
2023/03/19 03:54:46;;;;;;;10.18;6.25;;;;;;;9.43;100.00;101075.56;4939215;29;20031;-92
2023/03/19 03:57:12;;;;;;;10.05;6.43;;;;;;;9.40;100.00;101080.81;4940147;28;20023;-92
2023/03/19 03:59:37;;;;;;;9.85;6.15;;;;;;;9.43;100.00;101103.19;4938120;28;20030;-91
2023/03/19 04:02:03;;;;;;;9.82;5.95;;;;;;;9.38;100.00;101105.00;4955118;28;20499;-91
2023/03/19 04:04:28;;;;;;;8.35;5.82;;;;;;;9.27;100.00;101112.91;4940343;29;20031;-91
2023/03/19 04:06:54;;;;;;;11.43;6.97;;;;;;;9.03;100.00;101089.97;4940365;29;20126;-91
2023/03/19 04:09:19;;;;;;;11.55;6.28;;;;;;;8.90;100.00;101088.41;4939050;28;20395;-91
2023/03/19 04:11:45;;;;;;;10.55;6.32;;;;;;;8.92;100.00;101126.31;4939329;29;20023;-91
2023/03/19 04:14:10;;;;;;;8.85;6.05;;;;;;;8.67;100.00;101097.28;4938925;28;20395;-91
2023/03/19 04:16:36;;;;;;;9.05;6.10;;;;;;;8.55;100.00;101083.66;4940140;28;20031;-91
2023/03/19 04:19:01;;;;;;;9.70;6.00;;;;;;;8.60;100.00;101116.31;4939959;28;20035;-91
2023/03/19 04:21:28;;;;;;;10.48;6.53;;;;;;;8.40;100.00;101094.16;4939076;28;20031;-91
2023/03/19 04:23:56;;;;;;;10.23;6.55;;;;;;;8.26;100.00;101079.63;4940513;28;20435;-92
2023/03/19 04:26:22;;;;;;;9.65;6.43;;;;;;;8.25;100.00;101090.88;4939550;29;20047;-91
2023/03/19 04:28:47;;;;;;;12.30;6.68;;;;;;;8.18;100.00;101104.72;4940426;28;20023;-91
2023/03/19 04:31:14;;;;;;;11.68;6.45;;;;;;;8.11;100.00;101115.97;4955044;28;20806;-91
2023/03/19 04:33:39;;;;;;;11.10;7.03;;;;;;;8.07;100.00;101115.97;4938356;29;20056;-91
2023/03/19 04:36:05;;;;;;;10.10;6.43;;;;;;;7.93;100.00;101109.22;4940272;28;20032;-91
2023/03/19 04:38:31;;;;;;;8.68;6.03;;;;;;;8.01;100.00;101128.94;4941721;28;20042;-91
2023/03/19 04:40:57;;;;;;;10.60;6.25;;;;;;;7.83;100.00;101119.66;4955566;28;20022;-91
2023/03/19 04:43:23;;;;;;;12.43;6.97;;;;;;;7.76;100.00;101105.06;4954510;28;20035;-91
2023/03/19 04:45:49;;;;;;;11.07;6.72;;;;;;;7.68;100.00;101104.28;4938390;28;20133;-91
2023/03/19 04:48:15;;;;;;;11.35;7.05;;;;;;;7.67;100.00;101118.03;4940180;28;20031;-90
2023/03/19 04:50:41;;;;;;;10.57;6.32;;;;;;;7.58;100.00;101106.06;4939255;28;20059;-90
2023/03/19 04:53:07;;;;;;;11.20;6.45;;;;;;;7.40;100.00;101101.03;4940298;29;20063;-91
2023/03/19 04:55:32;;;;;;;12.07;7.03;;;;;;;7.42;100.00;101109.63;4940001;28;20711;-91
2023/03/19 04:57:59;;;;;;;10.63;6.68;;;;;;;7.41;100.00;101113.06;4954339;28;20081;-90
2023/03/19 05:00:25;;;;;;;10.90;6.90;;;;;;;7.21;100.00;101107.19;4938670;29;20114;-91
2023/03/19 05:02:50;;;;;;;10.50;6.20;;;;;;;7.23;100.00;101120.94;4955043;28;20122;-91
2023/03/19 05:05:16;;;;;;;10.93;6.70;;;;;;;7.16;100.00;101124.41;4954761;28;20483;-91
2023/03/19 05:07:42;;;;;;;12.52;6.88;;;;;;;7.14;100.00;101135.56;4940138;28;20042;-91
2023/03/19 05:10:11;;;;;;;11.23;6.75;;;;;;;6.94;100.00;101115.91;4940121;28;20027;-90
2023/03/19 05:12:36;;;;;;;12.02;7.03;;;;;;;6.98;100.00;101130.47;4954039;28;20043;-91
2023/03/19 05:15:04;;;;;;;11.90;7.30;;;;;;;6.82;100.00;101115.97;4940257;28;20028;-91
2023/03/19 05:17:30;;;;;;;13.85;7.25;;;;;;;6.97;100.00;101155.41;4937964;29;20031;-91
2023/03/19 05:19:55;;;;;;;12.75;7.03;;;;;;;6.85;100.00;101144.28;4940069;28;20090;-91
2023/03/19 05:22:22;;;;;;;10.85;7.03;;;;;;;6.81;100.00;101143.44;4940288;29;20031;-91
2023/03/19 05:24:48;;;;;;;14.32;7.90;;;;;;;6.71;100.00;101126.28;4938391;28;20144;-91
2023/03/19 05:27:16;;;;;;;13.65;7.55;;;;;;;6.76;100.00;101150.31;4943828;28;20143;-90
2023/03/19 05:29:41;;;;;;;12.55;7.07;;;;;;;6.60;100.00;101141.78;4940681;28;20023;-91
2023/03/19 05:32:07;;;;;;;12.32;6.95;;;;;;;6.71;100.00;101167.50;4954169;28;20787;-93
2023/03/19 05:34:33;;;;;;;11.70;6.88;;;;;;;6.57;100.00;101149.50;4954786;28;20035;-91
2023/03/19 05:36:58;;;;;;;11.65;7.15;;;;;;;6.59;100.00;101157.25;4938233;28;20458;-92
2023/03/19 05:39:24;;;;;;;11.85;6.70;;;;;;;6.41;100.00;101129.84;4938884;28;20134;-91
2023/03/19 05:41:49;;;;;;;11.75;7.43;;;;;;;6.50;100.00;101160.69;4938106;28;20042;-91
2023/03/19 05:44:15;;;;;;;13.35;7.20;;;;;;;6.47;100.00;101172.72;4939242;29;20031;-91
2023/03/19 05:46:41;;;;;;;11.40;6.63;;;;;;;6.32;100.00;101145.28;4938069;28;20034;-91
2023/03/19 05:49:07;;;;;;;12.98;7.70;;;;;;;6.31;100.00;101157.28;4939821;28;20035;-91
2023/03/19 05:51:32;;;;;;;11.60;6.97;;;;;;;6.39;100.00;101175.31;4941371;29;20106;-91
2023/03/19 05:53:58;;;;;;;12.13;7.15;;;;;;;6.34;100.00;101172.75;4940064;28;20443;-91
2023/03/19 05:56:27;;;;;;;15.02;7.13;;;;;;;6.29;100.00;101171.88;4939852;28;20027;-91
2023/03/19 05:58:52;;;;;;;13.02;7.22;;;;;;;6.23;100.00;101171.03;4942665;28;20039;-93
2023/03/19 06:01:18;;;;;;;13.80;7.57;;;;;;;6.30;100.00;101191.63;4956905;28;20366;-90
2023/03/19 06:03:44;;;;;;;12.32;7.00;;;;;;;6.23;100.00;101171.88;4943178;28;20063;-90
2023/03/19 06:06:09;;;;;;;11.13;6.68;;;;;;;6.30;100.00;101180.47;4942307;29;20024;-92
2023/03/19 06:08:35;;;;;;;12.02;7.25;;;;;;;6.19;100.00;101161.59;4956972;28;20042;-90
2023/03/19 06:11:00;;;;;;;14.55;7.80;;;;;;;6.29;100.00;101179.59;4943724;28;20208;-89
2023/03/19 06:13:29;;;;;;;14.27;7.32;;;;;;;6.22;100.00;101171.88;4941761;28;20033;-90
2023/03/19 06:15:57;;;;;;;12.13;6.93;;;;;;;6.25;100.00;101172.75;4944098;29;20113;-91
2023/03/19 06:18:23;;;;;;;12.70;7.45;;;;;;;6.27;100.00;101178.75;4943915;28;20063;-91
2023/03/19 06:20:48;;;;;;;12.52;7.32;;;;;;;6.29;100.00;101186.47;4942273;29;20056;-91
2023/03/19 06:23:14;;;;;;;14.30;8.27;;;;;;;6.33;100.00;101204.50;4943124;29;20447;-91
2023/03/19 06:25:39;;;;;;;14.93;7.32;;;;;;;6.32;100.00;101210.50;4944658;28;20381;-91
2023/03/19 06:28:05;;;;;;;14.93;7.97;;;;;;;6.39;100.00;101202.78;4942297;28;20169;-91
2023/03/19 06:30:31;;;;;;;14.13;8.13;;;;;;;6.70;100.00;101184.69;4940361;29;20502;-91
2023/03/19 06:32:59;;;;;;;14.75;8.07;;;;;;;7.29;100.00;101209.41;4956332;28;20407;-90
2023/03/19 06:35:24;;;;;;;13.75;7.80;;;;;;;7.51;100.00;101202.41;4939932;28;20524;-90
2023/03/19 06:37:51;;;;;;;13.45;7.70;;;;;;;7.61;100.00;101183.44;4942763;28;20036;-91
2023/03/19 06:40:16;;;;;;;15.45;8.65;;;;;;;7.76;100.00;101206.56;4941964;28;20142;-91
2023/03/19 06:42:46;;;;;;;13.63;7.88;;;;;;;7.59;100.00;101207.53;4940857;28;20122;-92
2023/03/19 06:45:15;;;;;;;14.43;8.73;;;;;;;7.60;100.00;101217.84;4942730;28;20071;-91
2023/03/19 06:47:42;;;;;;;17.65;9.45;;;;;;;7.49;100.00;101212.75;4942788;28;20492;-91
2023/03/19 06:50:09;;;;;;;11.95;7.57;;;;;;;7.44;100.00;101216.19;4941493;28;20388;-90
2023/03/19 06:52:35;;;;;;;16.27;9.70;;;;;;;7.31;100.00;101199.94;4940687;29;20460;-90
2023/03/19 06:55:00;;;;;;;14.30;8.45;;;;;;;7.26;100.00;101212.00;4940272;28;20556;-91
2023/03/19 06:57:26;;;;;;;17.27;9.38;;;;;;;7.36;100.00;101236.03;4940129;28;20031;-90
2023/03/19 06:59:53;;;;;;;14.45;8.90;;;;;;;7.30;100.00;101228.31;4941214;28;20032;-91
2023/03/19 07:02:19;;;;;;;14.40;9.02;;;;;;;7.38;100.00;101240.28;4956532;28;20031;-91
2023/03/19 07:04:45;;;;;;;15.65;9.73;;;;;;;7.46;100.00;101219.63;4941334;28;20094;-90
2023/03/19 07:07:10;;;;;;;15.52;9.75;;;;;;;7.74;100.00;101218.63;4938912;29;20039;-92
2023/03/19 07:09:38;;;;;;;15.85;9.95;;;;;;;8.02;100.00;101241.66;4955944;28;20043;-90
2023/03/19 07:12:07;;;;;;;17.60;10.10;;;;;;;7.98;100.00;101232.25;4944675;29;20432;-92
2023/03/19 07:14:33;;;;;;;13.23;8.60;;;;;;;7.88;100.00;101226.28;4955924;28;20034;-91
2023/03/19 07:16:58;;;;;;;15.65;9.48;;;;;;;7.91;100.00;101234.84;4939238;28;20031;-91
2023/03/19 07:19:24;;;;;;;14.70;9.52;;;;;;;7.90;100.00;101229.72;4938648;28;20046;-90
2023/03/19 07:21:52;;;;;;;17.35;10.25;;;;;;;8.13;100.00;101253.63;4944210;28;20579;-90
2023/03/19 07:24:21;;;;;;;15.88;9.73;;;;;;;8.31;100.00;101265.59;4940559;29;20118;-91
2023/03/19 07:26:49;;;;;;;17.73;10.60;;;;;;;8.27;100.00;101243.19;4940380;29;20035;-92
2023/03/19 07:29:14;;;;;;;21.30;12.15;;;;;;;8.51;100.00;101243.03;4956442;28;20138;-90
2023/03/19 07:31:42;;;;;;;21.30;12.57;;;;;;;8.79;100.00;101251.38;4956624;28;21163;-91
2023/03/19 07:34:07;;;;;;;22.92;13.02;;;;;;;9.05;100.00;101261.47;4939888;28;20649;-90
2023/03/19 07:36:36;;;;;;;19.98;12.23;;;;;;;9.21;100.00;101251.81;4954543;28;20509;-91
2023/03/19 07:39:02;;;;;;;21.38;12.20;;;;;;;9.31;100.00;101243.06;4954786;28;20032;-90
2023/03/19 07:41:27;;;;;;;21.75;12.50;;;;;;;9.59;100.00;101246.16;4941620;28;20562;-91
2023/03/19 07:43:52;;;;;;;21.42;11.82;;;;;;;10.13;100.00;101250.53;4942280;28;21199;-91
2023/03/19 07:46:18;;;;;;;21.85;10.95;;;;;;;10.63;100.00;101254.94;4942072;29;20529;-91
2023/03/19 07:48:46;;;;;;;19.50;10.65;;;;;;;11.32;100.00;101251.06;4953807;28;20035;-91
2023/03/19 07:51:15;;;;;;;18.35;10.15;;;;;;;12.18;100.00;101240.50;4955331;28;20452;-91
2023/03/19 07:53:40;;;;;;;21.98;10.15;;;;;;;13.11;100.00;101238.94;4940044;28;20027;-91
2023/03/19 07:56:06;;;;;;;17.23;8.38;;;;;;;14.19;97.01;101244.38;4939815;29;20443;-91
2023/03/19 07:58:34;;;;;;;12.77;7.10;;;;;;;14.42;92.76;101237.59;4939911;28;20035;-91
2023/03/19 08:01:02;;;;;;;12.50;7.15;;;;;;;14.33;93.33;101254.38;4955745;28;20132;-93
2023/03/19 08:03:29;;;;;;;14.00;7.63;;;;;;;14.13;91.58;101252.41;4940600;29;20471;-91
2023/03/19 08:05:55;;;;;;;13.35;7.35;;;;;;;14.03;92.70;101263.19;4941190;29;20031;-92
2023/03/19 08:08:33;;;;;;;13.75;7.47;;;;;;;13.95;90.83;101249.53;4954744;28;20042;-92
2023/03/19 08:10:59;;;;;;;15.15;7.53;;;;;;;13.95;91.02;101254.75;4940319;28;20035;-91
2023/03/19 08:13:38;;;;;;;;;;;;;;;;;;;;;
2023/03/19 08:16:08;;;;;;;16.10;7.47;;;;;;;15.07;90.69;101279.72;4940834;28;20435;-93
2023/03/19 08:18:35;;;;;;;12.50;6.63;;;;;;;15.22;85.23;101260.03;4938361;28;20039;-91
2023/03/19 08:21:04;;;;;;;12.95;6.70;;;;;;;15.51;83.71;101277.25;4940540;28;20032;-93
2023/03/19 08:23:30;;;;;;;14.15;7.18;;;;;;;15.53;83.61;101265.88;4938657;28;20046;-91
2023/03/19 08:25:58;;;;;;;15.32;7.70;;;;;;;15.95;82.66;101284.31;4954430;28;20407;-93
2023/03/19 08:28:26;;;;;;;12.18;7.15;;;;;;;16.08;78.50;101269.84;4940399;28;20042;-91
2023/03/19 08:30:54;;;;;;;10.50;6.65;;;;;;;16.14;78.68;101284.44;4941396;29;20031;-94
2023/03/19 08:33:23;;;;;;;10.88;6.78;;;;;;;16.11;81.06;101280.16;4956711;28;20059;-94
2023/03/19 08:36:02;;;;;;;11.40;7.10;;;;;;;16.47;79.34;101283.06;4956564;28;20534;-93
2023/03/19 08:38:28;;;;;;;12.13;6.82;;;;;;;16.81;75.77;101286.94;4939878;29;20051;-93
2023/03/19 08:41:00;;;;;;;11.07;6.03;;;;;;;16.85;74.31;101291.13;4940628;29;20110;-93
2023/03/19 08:43:27;;;;;;;10.88;6.05;;;;;;;16.78;74.14;101313.25;4945334;29;20027;-94
2023/03/19 08:48:40;;;;;;;12.00;6.22;;;;;;;16.14;74.79;101289.66;4943248;29;20047;-93
2023/03/19 08:51:11;;;;;;;14.07;5.88;;;;;;;16.30;75.50;101290.75;4955533;28;20586;-93
2023/03/19 08:53:40;;;;;;;13.55;5.25;;;;;;;16.64;76.09;101305.13;4955576;28;20023;-92
2023/03/19 08:56:16;;;;;;;12.20;5.45;;;;;;;16.97;71.49;101317.66;4941357;29;20035;-92
2023/03/19 08:58:46;;;;;;;12.07;5.25;;;;;;;17.20;71.81;101323.66;4939731;29;20046;-92
2023/03/19 09:01:28;;;;;;;10.30;5.75;;;;;;;17.47;73.79;101311.94;4944714;29;20028;-92
2023/03/19 09:03:54;;;;;;;11.27;5.20;;;;;;;17.71;68.96;101307.41;4940288;29;20481;-92
2023/03/19 09:06:33;;;;;;;14.30;5.75;;;;;;;17.65;69.59;101313.78;4955686;28;20539;-93
2023/03/19 09:08:59;;;;;;;13.55;5.78;;;;;;;17.68;71.27;101312.78;4940796;29;20031;-93
2023/03/19 09:11:28;;;;;;;13.77;5.55;;;;;;;17.65;67.02;101319.03;4941574;29;20031;-93
2023/03/19 09:13:56;;;;;;;10.80;5.13;;;;;;;17.41;68.07;101306.97;4942858;29;20091;-93
2023/03/19 09:16:22;;;;;;;12.40;4.88;;;;;;;17.05;67.56;101306.84;4943870;29;20059;-93
2023/03/19 09:19:02;;;;;;;8.52;5.25;;;;;;;16.79;71.52;101320.16;4942236;29;20047;-92
2023/03/19 09:24:26;;;;;;;10.48;6.00;;;;;;;16.07;73.12;101337.88;4932392;29;20074;-93
2023/03/19 09:26:54;;;;;;;12.43;6.53;;;;;;;15.77;72.43;101335.50;4942407;29;20038;-92
2023/03/19 09:29:30;;;;;;;11.80;6.57;;;;;;;15.64;74.08;101338.63;4939362;28;20062;-92
2023/03/19 09:31:59;;;;;;;11.68;6.82;;;;;;;15.50;74.86;101341.72;4941297;29;20302;-92
2023/03/19 09:34:25;;;;;;;13.32;7.13;;;;;;;15.34;74.44;101332.75;4942546;29;20043;-93
2023/03/19 09:36:50;;;;;;;15.05;7.40;;;;;;;15.30;74.65;101331.97;4958408;28;20031;-93
2023/03/19 09:39:18;;;;;;;16.80;8.07;;;;;;;15.38;78.19;101350.00;4942878;29;20011;-92
2023/03/19 09:42:12;;;;;;;14.93;7.55;;;;;;;15.63;77.67;101363.91;4958828;28;20024;-92
2023/03/19 09:44:42;;;;;;;14.10;7.72;;;;;;;15.60;74.62;101355.34;4958588;28;20031;-93
2023/03/19 09:47:52;;;;;;;12.82;7.50;;;;;;;15.54;75.87;101372.09;4942521;29;20119;-92
2023/03/19 09:50:21;;;;;;;15.68;7.10;;;;;;;15.22;75.12;101359.25;4937106;28;20339;-92
2023/03/19 09:53:32;;;;;;;13.60;7.07;;;;;;;15.22;76.31;101377.56;4960593;28;20039;-92
2023/03/19 09:56:03;;;;;;;13.30;7.28;;;;;;;14.81;75.51;101356.28;4938518;29;20049;-92
2023/03/19 09:58:54;;;;;;;15.80;7.65;;;;;;;14.63;76.79;101365.59;4943580;29;20162;-91
2023/03/19 10:01:32;;;;;;;14.57;7.85;;;;;;;14.57;79.39;101367.53;4942318;29;20122;-92
2023/03/19 10:04:13;;;;;;;16.63;7.35;;;;;;;14.70;79.47;101379.28;4957193;28;20597;-91
2023/03/19 10:06:40;;;;;;;15.15;7.85;;;;;;;14.57;78.47;101357.97;4956998;28;20059;-91
2023/03/19 10:09:20;;;;;;;14.63;7.10;;;;;;;14.61;78.89;101376.97;4959017;28;20023;-91
2023/03/19 10:12:25;;;;;;;15.73;7.68;;;;;;;14.65;80.42;101370.78;4957566;28;20130;-93
2023/03/19 10:15:22;;;;;;;17.83;6.93;;;;;;;14.67;79.96;101357.69;4957616;28;20023;-92
2023/03/19 10:18:18;;;;;;;15.88;6.88;;;;;;;14.90;79.20;101369.06;4958405;28;20072;-92
2023/03/19 10:20:57;;;;;;;13.55;6.97;;;;;;;14.92;77.48;101375.09;4943898;29;20019;-92
2023/03/19 10:23:36;;;;;;;11.80;7.05;;;;;;;14.57;78.13;101373.63;4942867;29;20039;-92
2023/03/19 10:26:10;;;;;;;14.77;6.97;;;;;;;14.39;79.80;101361.16;4958268;28;20618;-92
2023/03/19 10:28:42;;;;;;;14.68;6.78;;;;;;;14.45;79.69;101363.56;4941817;28;20053;-91
2023/03/19 10:31:36;;;;;;;11.23;6.10;;;;;;;14.55;80.87;101361.50;4956125;28;20111;-91
2023/03/19 10:34:36;;;;;;;14.07;6.60;;;;;;;14.79;81.43;101376.41;4942302;29;20059;-92
2023/03/19 10:37:22;;;;;;;11.68;6.60;;;;;;;14.78;78.73;101372.06;4944798;29;20054;-91
2023/03/19 10:39:54;;;;;;;11.73;6.50;;;;;;;14.72;78.65;101364.44;4943014;29;20027;-92
2023/03/19 10:42:41;;;;;;;12.20;5.30;;;;;;;15.01;77.94;101387.00;4947592;28;20039;-91
2023/03/19 10:45:26;;;;;;;14.80;6.38;;;;;;;15.48;77.83;101392.34;4943882;29;20399;-92
2023/03/19 10:47:59;;;;;;;13.70;6.25;;;;;;;15.56;74.88;101370.28;4940223;29;20031;-91
2023/03/19 10:50:36;;;;;;;13.40;6.70;;;;;;;15.83;75.58;101385.88;4957659;28;20066;-92
2023/03/19 10:53:30;;;;;;;12.80;6.88;;;;;;;15.79;75.88;101391.22;4942030;29;20058;-91
2023/03/19 10:56:00;;;;;;;13.63;7.07;;;;;;;15.55;73.19;101379.03;4941877;29;20031;-91
2023/03/19 10:58:29;;;;;;;15.38;6.47;;;;;;;15.60;74.00;101405.00;4942506;29;20512;-91
2023/03/19 11:01:02;;;;;;;14.88;7.35;;;;;;;15.45;75.02;101392.44;4957824;28;20507;-91
2023/03/19 11:03:36;;;;;;;17.92;7.82;;;;;;;15.31;73.86;101385.09;4942500;29;20042;-91
2023/03/19 11:06:16;;;;;;;13.50;7.32;;;;;;;15.45;77.49;101395.06;4941632;29;20027;-91
2023/03/19 11:08:42;;;;;;;16.70;8.75;;;;;;;15.55;73.54;101405.19;4957229;28;20027;-91
2023/03/19 11:11:31;;;;;;;13.27;8.20;;;;;;;15.54;76.44;101385.16;4942826;29;20251;-91
2023/03/19 11:14:07;;;;;;;17.98;8.90;;;;;;;15.59;75.47;101392.84;4942337;29;20767;-91
2023/03/19 11:16:57;;;;;;;18.25;8.95;;;;;;;15.59;75.08;101396.31;4942084;29;20086;-92
2023/03/19 11:19:31;;;;;;;15.32;8.55;;;;;;;15.38;74.65;101386.56;4940633;28;20032;-92
2023/03/19 11:22:19;;;;;;;15.60;8.30;;;;;;;15.24;76.86;101388.81;4957657;28;20023;-93
2023/03/19 11:25:29;;;;;;;16.38;7.97;;;;;;;15.14;78.02;101387.44;4938073;29;20070;-92
2023/03/19 11:28:05;;;;;;;12.43;6.38;;;;;;;15.21;76.32;101379.34;4939947;29;20034;-93
2023/03/19 11:30:39;;;;;;;13.52;5.43;;;;;;;15.42;76.17;101385.59;4957262;28;20062;-92
2023/03/19 11:33:56;;;;;;;14.25;5.88;;;;;;;15.83;76.57;101396.34;4940961;28;20066;-92
2023/03/19 11:36:40;;;;;;;12.43;6.18;;;;;;;16.30;73.67;101412.88;4898121;29;20210;-92
2023/03/19 11:39:49;;;;;;;15.63;7.43;;;;;;;16.51;76.25;101393.72;4941657;29;20369;-93